Time;durP1;ratioP1;P1;durP2;ratioP2;P2;SDS_P1;SDS_P2;PMS_P1;PMS_P2;Temp;Humidity;BMP_temperature;BMP_pressure;BME280_temperature;BME280_humidity;BME280_pressure;Samples;Min_cycle;Max_cycle;Signal;HPM_P1;HPM_P2
2023/12/08 00:01:04;;;;;;;108.60;33.80;;;1.20;99.90;;;;;;5200686;28;20180;-49
2023/12/08 00:03:34;;;;;;;116.90;37.30;;;1.20;99.90;;;;;;5185724;28;20215;-51
2023/12/08 00:06:07;;;;;;;107.50;34.90;;;1.20;99.90;;;;;;5189432;28;20229;-49
2023/12/08 00:08:37;;;;;;;117.97;36.73;;;1.20;99.90;;;;;;5206309;28;20180;-50
2023/12/08 00:11:09;;;;;;;125.20;36.80;;;1.20;99.90;;;;;;5189155;28;20471;-49
2023/12/08 00:13:41;;;;;;;107.67;35.37;;;1.20;99.90;;;;;;5176867;28;20607;-50
2023/12/08 00:16:11;;;;;;;108.43;36.77;;;1.20;99.90;;;;;;5204046;28;20952;-50
2023/12/08 00:18:42;;;;;;;117.67;36.70;;;1.20;99.90;;;;;;5173108;28;20432;-50
2023/12/08 00:21:13;;;;;;;114.60;36.33;;;1.30;99.90;;;;;;5205238;28;20659;-51
2023/12/08 00:23:44;;;;;;;99.93;33.13;;;1.30;99.90;;;;;;5205012;28;20215;-50
2023/12/08 00:26:14;;;;;;;114.60;35.17;;;1.30;99.90;;;;;;5205858;28;20190;-50
2023/12/08 00:28:45;;;;;;;113.10;35.67;;;1.30;99.90;;;;;;5191127;28;20450;-49
2023/12/08 00:31:16;;;;;;;103.70;35.13;;;1.40;99.90;;;;;;5204408;28;20200;-50
2023/12/08 00:33:46;;;;;;;108.37;35.00;;;1.30;99.90;;;;;;5203778;28;20199;-49
2023/12/08 00:36:17;;;;;;;104.23;35.07;;;1.30;99.90;;;;;;5212494;28;20184;-50
2023/12/08 00:38:47;;;;;;;130.37;36.50;;;1.30;99.90;;;;;;5188389;28;20346;-50
2023/12/08 00:41:18;;;;;;;117.20;34.97;;;1.20;99.90;;;;;;5184164;28;20262;-49
2023/12/08 00:43:49;;;;;;;117.03;36.13;;;1.20;99.90;;;;;;5205638;28;20286;-49
2023/12/08 00:46:19;;;;;;;131.20;39.03;;;1.20;99.90;;;;;;5188995;28;20195;-49
2023/12/08 00:48:50;;;;;;;125.97;36.30;;;1.20;99.90;;;;;;5201740;28;20245;-49
2023/12/08 00:51:20;;;;;;;113.87;36.80;;;1.10;99.90;;;;;;5187311;28;20196;-51
2023/12/08 00:53:51;;;;;;;123.93;37.70;;;1.10;99.90;;;;;;5186704;28;20190;-50
2023/12/08 00:56:22;;;;;;;120.80;36.70;;;1.10;99.90;;;;;;5186678;28;20213;-49
2023/12/08 00:58:52;;;;;;;119.37;36.30;;;1.20;99.90;;;;;;5202185;28;20191;-51
2023/12/08 01:01:23;;;;;;;170.93;37.33;;;1.10;99.90;;;;;;5172953;28;20190;-49
2023/12/08 01:03:53;;;;;;;127.63;37.30;;;1.10;99.90;;;;;;5203159;28;20299;-51
2023/12/08 01:06:24;;;;;;;131.00;38.60;;;1.10;99.90;;;;;;5203731;28;20647;-50
2023/12/08 01:08:54;;;;;;;137.77;38.13;;;1.10;99.90;;;;;;5203576;28;20540;-50
2023/12/08 01:11:25;;;;;;;148.40;40.17;;;1.10;99.90;;;;;;5186459;28;20253;-48
2023/12/08 01:13:56;;;;;;;128.97;38.97;;;1.10;99.90;;;;;;5203379;28;20310;-51
2023/12/08 01:16:26;;;;;;;143.03;39.07;;;1.10;99.90;;;;;;5187639;28;20193;-50
2023/12/08 01:18:57;;;;;;;123.30;36.40;;;1.10;99.90;;;;;;5191917;28;20176;-50
2023/12/08 01:21:28;;;;;;;125.37;35.83;;;1.10;99.90;;;;;;5189036;28;20187;-49
2023/12/08 01:23:58;;;;;;;128.07;35.10;;;1.10;99.90;;;;;;5204513;28;20296;-52
2023/12/08 01:26:29;;;;;;;112.33;33.57;;;1.10;99.90;;;;;;5187763;28;20180;-50
2023/12/08 01:28:59;;;;;;;133.17;37.00;;;1.20;99.90;;;;;;5206482;28;20190;-50
2023/12/08 01:31:30;;;;;;;120.70;38.27;;;1.10;99.90;;;;;;5205202;28;20225;-50
2023/12/08 01:34:01;;;;;;;138.33;36.03;;;1.10;99.90;;;;;;5201498;28;20203;-50
2023/12/08 01:36:31;;;;;;;115.30;36.07;;;1.10;99.90;;;;;;5204908;28;20182;-49
2023/12/08 01:39:02;;;;;;;116.67;34.93;;;1.20;99.90;;;;;;5187692;28;20700;-51
2023/12/08 01:41:33;;;;;;;123.13;37.83;;;1.20;99.90;;;;;;5190239;28;20205;-51
2023/12/08 01:44:04;;;;;;;117.83;36.13;;;1.20;99.90;;;;;;5206065;28;20209;-51
2023/12/08 01:46:36;;;;;;;132.07;38.33;;;1.10;99.90;;;;;;5187741;28;20484;-50
2023/12/08 01:49:07;;;;;;;157.53;38.17;;;1.10;99.90;;;;;;5187236;28;20183;-49
2023/12/08 01:51:37;;;;;;;133.90;36.80;;;1.10;99.90;;;;;;5185023;28;20516;-51
2023/12/08 01:54:08;;;;;;;140.67;36.60;;;1.10;99.90;;;;;;5187802;28;20209;-50
2023/12/08 01:56:40;;;;;;;113.00;35.50;;;1.10;99.90;;;;;;5186040;28;20190;-50
2023/12/08 01:59:11;;;;;;;131.93;37.87;;;1.10;99.90;;;;;;5188350;28;20426;-52
2023/12/08 02:01:42;;;;;;;129.47;37.67;;;1.10;99.90;;;;;;5187476;28;20455;-50
2023/12/08 02:04:13;;;;;;;139.53;38.50;;;1.10;99.90;;;;;;5202265;28;20870;-50
2023/12/08 02:06:43;;;;;;;143.97;40.00;;;1.10;99.90;;;;;;5208594;28;20738;-51
2023/12/08 02:09:15;;;;;;;142.47;38.40;;;1.10;99.90;;;;;;5204162;28;20192;-51
2023/12/08 02:11:46;;;;;;;131.33;37.07;;;1.10;99.90;;;;;;5188898;28;20217;-52
2023/12/08 02:14:16;;;;;;;134.33;37.23;;;1.10;99.90;;;;;;5207501;28;20490;-51
2023/12/08 02:16:55;;;;;;;153.40;39.97;;;1.10;99.90;;;;;;5205934;28;20184;-51
2023/12/08 02:19:26;;;;;;;164.53;41.60;;;1.10;99.90;;;;;;5188543;28;20179;-49
2023/12/08 02:21:57;;;;;;;137.23;38.30;;;1.10;99.90;;;;;;5205727;28;20450;-50
2023/12/08 02:24:28;;;;;;;156.70;40.70;;;1.10;99.90;;;;;;5184418;28;20792;-50
2023/12/08 02:26:59;;;;;;;153.03;42.73;;;1.10;99.90;;;;;;5184631;28;20214;-49
2023/12/08 02:29:30;;;;;;;144.47;39.50;;;1.10;99.90;;;;;;5187291;28;20274;-51
2023/12/08 02:32:31;;;;;;;149.00;39.53;;;1.10;99.90;;;;;;5188372;28;20207;-51
2023/12/08 02:35:07;;;;;;;141.13;41.40;;;1.20;99.90;;;;;;5187201;28;20454;-49
2023/12/08 02:37:42;;;;;;;134.57;38.67;;;1.20;99.90;;;;;;5204634;28;20429;-52
2023/12/08 02:40:12;;;;;;;158.03;42.77;;;1.20;99.90;;;;;;5202343;28;20443;-50
2023/12/08 02:42:43;;;;;;;142.13;39.90;;;1.20;99.90;;;;;;5204376;28;20446;-51
2023/12/08 02:45:14;;;;;;;133.70;40.43;;;1.20;99.90;;;;;;5188394;28;20198;-51
2023/12/08 02:47:44;;;;;;;137.37;40.00;;;1.20;99.90;;;;;;5183849;28;20183;-52
2023/12/08 02:50:15;;;;;;;114.77;36.20;;;1.20;99.90;;;;;;5189181;28;20208;-49
2023/12/08 02:52:45;;;;;;;124.20;37.10;;;1.30;99.90;;;;;;5186070;28;20211;-49
2023/12/08 02:55:16;;;;;;;136.00;40.43;;;1.20;99.90;;;;;;5190735;28;20204;-50
2023/12/08 02:57:47;;;;;;;117.57;37.23;;;1.20;99.90;;;;;;5190365;28;20695;-52
2023/12/08 03:00:18;;;;;;;133.60;40.03;;;1.20;99.90;;;;;;5191401;28;20255;-50
2023/12/08 03:02:48;;;;;;;130.87;36.90;;;1.20;99.90;;;;;;5188570;28;20202;-49
2023/12/08 03:05:19;;;;;;;111.83;37.00;;;1.20;99.90;;;;;;5208121;28;20483;-48
2023/12/08 03:07:49;;;;;;;126.87;39.70;;;1.20;99.90;;;;;;5190510;28;20191;-50
2023/12/08 03:10:20;;;;;;;111.13;35.97;;;1.20;99.90;;;;;;5190887;28;20305;-52
2023/12/08 03:12:51;;;;;;;98.60;34.70;;;1.20;99.90;;;;;;5203655;28;20181;-51
2023/12/08 03:15:23;;;;;;;130.23;38.90;;;1.20;99.90;;;;;;5188828;28;20181;-49
2023/12/08 03:17:53;;;;;;;113.47;35.60;;;1.30;99.90;;;;;;5205041;28;20645;-51
2023/12/08 03:20:24;;;;;;;131.50;40.10;;;1.20;99.90;;;;;;5208230;28;20487;-50
2023/12/08 03:22:55;;;;;;;128.07;36.03;;;1.30;99.90;;;;;;5190253;28;20216;-50
2023/12/08 03:25:26;;;;;;;113.60;35.80;;;1.30;99.90;;;;;;5190540;28;20189;-50
2023/12/08 03:27:56;;;;;;;105.63;34.70;;;1.30;99.90;;;;;;5208018;28;20948;-49
2023/12/08 03:30:27;;;;;;;119.07;36.90;;;1.30;99.90;;;;;;5207571;28;20211;-49
2023/12/08 03:32:58;;;;;;;131.30;39.00;;;1.30;99.90;;;;;;5204948;28;20228;-49
2023/12/08 03:35:28;;;;;;;128.50;38.40;;;1.30;99.90;;;;;;5191057;28;20271;-49
2023/12/08 03:37:59;;;;;;;122.07;35.57;;;1.30;99.90;;;;;;5188531;28;20276;-51
2023/12/08 03:40:29;;;;;;;121.70;37.33;;;1.40;99.90;;;;;;5190445;28;20194;-50
2023/12/08 03:43:00;;;;;;;123.43;38.17;;;1.40;99.90;;;;;;5202168;28;20250;-49
2023/12/08 03:45:30;;;;;;;119.50;36.90;;;1.40;99.90;;;;;;5190139;28;20278;-50
2023/12/08 03:48:01;;;;;;;135.57;39.70;;;1.40;99.90;;;;;;5205458;28;20184;-50
2023/12/08 03:50:32;;;;;;;133.30;38.33;;;1.30;99.90;;;;;;5208542;28;20216;-50
2023/12/08 03:53:02;;;;;;;133.87;37.27;;;1.40;99.90;;;;;;5190623;28;20657;-50
2023/12/08 03:55:33;;;;;;;112.50;34.50;;;1.30;99.90;;;;;;5205616;28;20179;-51
2023/12/08 03:58:03;;;;;;;129.97;38.00;;;1.40;99.90;;;;;;5189646;28;20271;-51
2023/12/08 04:00:34;;;;;;;127.80;38.60;;;1.40;99.90;;;;;;5189145;28;20188;-51
2023/12/08 04:03:05;;;;;;;138.27;39.73;;;1.40;99.90;;;;;;5205369;28;20242;-51
2023/12/08 04:05:35;;;;;;;124.73;40.20;;;1.40;99.90;;;;;;5189796;28;20179;-51
2023/12/08 04:08:07;;;;;;;123.23;38.13;;;1.40;99.90;;;;;;5194065;28;20183;-50
2023/12/08 04:10:38;;;;;;;124.43;40.80;;;1.40;99.90;;;;;;5205392;28;20219;-50
2023/12/08 04:13:08;;;;;;;116.47;37.33;;;1.40;99.90;;;;;;5205594;28;20456;-49
2023/12/08 04:15:39;;;;;;;107.77;37.07;;;1.40;99.90;;;;;;5195245;28;20204;-51
2023/12/08 04:18:10;;;;;;;113.00;37.07;;;1.40;99.90;;;;;;5202877;28;20212;-50
2023/12/08 04:20:41;;;;;;;121.30;37.63;;;1.40;99.90;;;;;;5207878;28;20842;-50
2023/12/08 04:23:11;;;;;;;116.30;39.43;;;1.40;99.90;;;;;;5207186;28;20222;-49
2023/12/08 04:25:42;;;;;;;123.53;38.13;;;1.50;99.90;;;;;;5191123;28;20180;-50
2023/12/08 04:28:13;;;;;;;103.53;35.10;;;1.50;99.90;;;;;;5191073;28;20184;-51
2023/12/08 04:30:43;;;;;;;123.07;38.67;;;1.40;99.90;;;;;;5193664;28;20267;-50
2023/12/08 04:33:14;;;;;;;127.70;41.00;;;1.40;99.90;;;;;;5189605;28;20214;-49
2023/12/08 04:35:45;;;;;;;126.40;40.17;;;1.50;99.90;;;;;;5193901;28;20183;-50
2023/12/08 04:38:15;;;;;;;104.27;35.77;;;1.50;99.90;;;;;;5205564;28;20176;-50
2023/12/08 04:40:46;;;;;;;118.67;39.80;;;1.50;99.90;;;;;;5189555;28;20187;-50
2023/12/08 04:43:16;;;;;;;96.93;35.30;;;1.40;99.90;;;;;;5192745;28;20204;-50
2023/12/08 04:45:47;;;;;;;105.40;36.70;;;1.50;99.90;;;;;;5205096;28;20215;-51
2023/12/08 04:48:18;;;;;;;106.83;40.43;;;1.40;99.90;;;;;;5205996;28;20243;-52
2023/12/08 04:50:51;;;;;;;110.70;38.17;;;1.40;99.90;;;;;;5206270;28;20286;-51
2023/12/08 04:53:22;;;;;;;100.00;37.47;;;1.50;99.90;;;;;;5192050;28;20202;-50
2023/12/08 04:55:53;;;;;;;104.90;37.20;;;1.50;99.90;;;;;;5206566;28;20427;-52
2023/12/08 04:58:23;;;;;;;94.27;36.13;;;1.50;99.90;;;;;;5190893;28;20179;-52
2023/12/08 05:00:54;;;;;;;109.93;36.43;;;1.50;99.90;;;;;;5204892;28;20186;-51
2023/12/08 05:03:24;;;;;;;99.60;38.40;;;1.50;99.90;;;;;;5205612;28;20211;-50
2023/12/08 05:05:55;;;;;;;111.27;36.07;;;1.50;99.90;;;;;;5190746;28;20180;-49
2023/12/08 05:08:26;;;;;;;97.30;37.70;;;1.50;99.90;;;;;;5187625;28;20191;-50
2023/12/08 05:10:56;;;;;;;91.67;37.07;;;1.50;99.90;;;;;;5211833;28;20209;-49
2023/12/08 05:13:27;;;;;;;86.70;35.90;;;1.50;99.90;;;;;;5190540;28;20195;-52
2023/12/08 05:15:57;;;;;;;87.30;36.10;;;1.50;99.90;;;;;;5194911;28;20648;-50
2023/12/08 05:18:28;;;;;;;93.27;34.77;;;1.50;99.90;;;;;;5204999;28;20175;-48
2023/12/08 05:20:58;;;;;;;90.67;34.90;;;1.50;99.90;;;;;;5205272;28;20185;-50
2023/12/08 05:23:29;;;;;;;91.03;35.40;;;1.60;99.90;;;;;;5189934;28;20196;-52
2023/12/08 05:26:00;;;;;;;83.10;32.20;;;1.60;99.90;;;;;;5171978;28;20655;-51
2023/12/08 05:28:30;;;;;;;93.67;36.07;;;1.60;99.90;;;;;;5205166;28;20273;-51
2023/12/08 05:31:02;;;;;;;85.40;33.57;;;1.50;99.90;;;;;;5185343;28;20262;-50
2023/12/08 05:33:32;;;;;;;85.40;33.37;;;1.60;99.90;;;;;;5193165;28;20278;-51
2023/12/08 05:36:03;;;;;;;86.57;33.97;;;1.50;99.90;;;;;;5187499;28;20560;-51
2023/12/08 05:38:35;;;;;;;87.23;33.90;;;1.50;99.90;;;;;;5205394;28;20179;-51
2023/12/08 05:41:07;;;;;;;82.07;32.87;;;1.50;99.90;;;;;;5188514;28;20473;-51
2023/12/08 05:43:38;;;;;;;79.20;32.60;;;1.50;99.90;;;;;;5200629;28;20465;-51
2023/12/08 05:46:08;;;;;;;77.67;32.60;;;1.50;99.90;;;;;;5187888;28;20983;-51
2023/12/08 05:48:39;;;;;;;79.37;34.10;;;1.50;99.90;;;;;;5187313;28;20314;-51
2023/12/08 05:51:09;;;;;;;69.40;32.97;;;1.50;99.90;;;;;;5216684;28;20194;-52
2023/12/08 05:53:40;;;;;;;71.30;32.93;;;1.50;99.90;;;;;;5201559;28;20210;-49
2023/12/08 05:56:11;;;;;;;71.80;35.00;;;1.50;99.90;;;;;;5205504;28;20182;-50
2023/12/08 05:58:41;;;;;;;87.47;34.63;;;1.50;99.90;;;;;;5204866;28;20186;-50
2023/12/08 06:01:14;;;;;;;74.87;33.33;;;1.50;99.90;;;;;;5186356;28;20445;-50
2023/12/08 06:03:44;;;;;;;86.63;34.83;;;1.50;99.90;;;;;;5185948;28;20218;-51
2023/12/08 06:06:15;;;;;;;78.03;32.43;;;1.50;99.90;;;;;;5202422;28;20938;-51
2023/12/08 06:08:46;;;;;;;74.17;31.50;;;1.50;99.90;;;;;;5187729;28;20278;-48
2023/12/08 06:11:16;;;;;;;64.43;29.23;;;1.50;99.90;;;;;;5201985;28;20203;-50
2023/12/08 06:13:47;;;;;;;71.57;30.87;;;1.50;99.90;;;;;;5187853;28;20212;-50
2023/12/08 06:16:17;;;;;;;69.13;30.90;;;1.50;99.90;;;;;;5201975;28;20191;-51
2023/12/08 06:18:48;;;;;;;82.57;33.70;;;1.50;99.90;;;;;;5187164;28;20207;-53
2023/12/08 06:21:19;;;;;;;60.53;28.80;;;1.50;99.90;;;;;;5202728;28;20266;-49
2023/12/08 06:23:49;;;;;;;76.23;30.60;;;1.50;99.90;;;;;;5201425;28;20211;-49
2023/12/08 06:26:20;;;;;;;60.03;30.37;;;1.50;99.90;;;;;;5170938;28;20184;-50
2023/12/08 06:28:50;;;;;;;69.97;29.93;;;1.50;99.90;;;;;;5204486;28;20256;-49
2023/12/08 06:31:21;;;;;;;68.40;31.63;;;1.40;99.90;;;;;;5202155;28;20667;-50
2023/12/08 06:33:52;;;;;;;60.97;29.10;;;1.30;99.90;;;;;;5211944;28;20202;-51
2023/12/08 06:36:22;;;;;;;70.30;31.23;;;1.30;99.90;;;;;;5205896;28;20173;-52
2023/12/08 06:38:53;;;;;;;76.47;31.17;;;1.30;99.90;;;;;;5193485;28;20180;-49
2023/12/08 06:41:23;;;;;;;70.77;28.77;;;1.20;99.90;;;;;;5208658;28;20184;-51
2023/12/08 06:43:54;;;;;;;73.57;30.50;;;1.20;99.90;;;;;;5190397;28;20203;-53
2023/12/08 06:46:25;;;;;;;68.90;30.70;;;1.10;99.90;;;;;;5206449;28;20182;-51
2023/12/08 06:48:55;;;;;;;67.30;31.40;;;1.10;99.90;;;;;;5191333;28;20184;-50
2023/12/08 06:51:26;;;;;;;57.60;27.17;;;1.20;99.90;;;;;;5189258;28;20205;-50
2023/12/08 06:53:57;;;;;;;58.83;28.83;;;1.10;99.90;;;;;;5213462;28;20212;-52
2023/12/08 06:56:27;;;;;;;53.80;26.93;;;1.10;99.90;;;;;;5205265;28;20246;-48
2023/12/08 06:58:58;;;;;;;81.70;29.00;;;1.10;99.90;;;;;;5204258;28;20608;-50
2023/12/08 07:01:29;;;;;;;56.17;27.93;;;1.10;99.90;;;;;;5213418;28;20184;-49
2023/12/08 07:03:59;;;;;;;62.13;28.37;;;1.20;99.90;;;;;;5191671;28;20687;-51
2023/12/08 07:06:30;;;;;;;69.73;29.10;;;1.20;99.90;;;;;;5207094;28;21853;-51
2023/12/08 07:09:01;;;;;;;63.43;28.60;;;1.20;99.90;;;;;;5191816;28;20203;-52
2023/12/08 07:11:33;;;;;;;59.00;27.80;;;1.20;99.90;;;;;;5206414;28;20828;-51
2023/12/08 07:14:03;;;;;;;60.10;26.53;;;1.20;99.90;;;;;;5206170;28;20249;-51
2023/12/08 07:16:34;;;;;;;60.40;27.43;;;1.20;99.90;;;;;;5194357;28;20433;-49
2023/12/08 07:19:05;;;;;;;74.93;30.43;;;1.20;99.90;;;;;;5190312;28;20197;-49
2023/12/08 07:21:44;;;;;;;64.77;28.60;;;1.20;99.90;;;;;;5205592;28;20187;-49
2023/12/08 07:24:16;;;;;;;53.40;27.30;;;1.20;99.90;;;;;;5193153;28;20201;-51
2023/12/08 07:26:47;;;;;;;63.67;29.90;;;1.10;99.90;;;;;;5193304;28;20468;-49
2023/12/08 07:29:17;;;;;;;62.37;30.33;;;1.20;99.90;;;;;;5190015;28;21090;-50
2023/12/08 07:31:48;;;;;;;65.67;29.57;;;1.10;99.90;;;;;;5191387;28;20210;-49
2023/12/08 07:34:18;;;;;;;65.90;29.00;;;1.10;99.90;;;;;;5191179;28;20210;-51
2023/12/08 07:36:49;;;;;;;57.97;28.23;;;1.10;99.90;;;;;;5206919;28;20306;-49
2023/12/08 07:39:20;;;;;;;65.00;30.63;;;1.10;99.90;;;;;;5189451;28;20715;-51
2023/12/08 07:41:50;;;;;;;66.47;29.90;;;1.10;99.90;;;;;;5191433;28;20180;-51
2023/12/08 07:44:21;;;;;;;62.37;29.17;;;1.00;99.90;;;;;;5190071;28;20226;-50
2023/12/08 07:46:52;;;;;;;57.80;28.17;;;1.00;99.90;;;;;;5196460;28;20196;-50
2023/12/08 07:49:22;;;;;;;63.63;28.83;;;1.00;99.90;;;;;;5192409;28;20529;-49
2023/12/08 07:51:53;;;;;;;65.47;29.00;;;1.00;99.90;;;;;;5190336;28;20300;-49
2023/12/08 07:54:24;;;;;;;56.87;26.43;;;1.00;99.90;;;;;;5190083;28;20269;-50
2023/12/08 07:56:54;;;;;;;56.40;27.63;;;1.00;99.90;;;;;;5202197;28;20188;-50
2023/12/08 07:59:25;;;;;;;59.50;28.70;;;1.00;99.90;;;;;;5205549;28;20270;-49
2023/12/08 08:01:56;;;;;;;61.23;28.63;;;0.90;99.90;;;;;;5205795;28;20190;-50
2023/12/08 08:04:27;;;;;;;60.73;26.80;;;0.90;99.90;;;;;;5189892;28;20465;-50
2023/12/08 08:06:57;;;;;;;62.20;29.20;;;1.00;99.90;;;;;;5193645;28;20537;-52
2023/12/08 08:09:28;;;;;;;60.30;26.90;;;1.00;99.90;;;;;;5192982;28;20183;-49
2023/12/08 08:11:59;;;;;;;55.27;28.00;;;1.00;99.90;;;;;;5202195;28;20200;-49
2023/12/08 08:14:29;;;;;;;62.13;28.80;;;1.00;99.90;;;;;;5189776;28;20199;-50
2023/12/08 08:17:01;;;;;;;53.40;25.40;;;1.00;99.90;;;;;;5205888;28;20183;-51
2023/12/08 08:19:32;;;;;;;73.97;28.20;;;1.00;99.90;;;;;;5205497;28;20186;-50
2023/12/08 08:22:03;;;;;;;49.40;25.27;;;1.10;99.90;;;;;;5218948;28;20442;-49
2023/12/08 08:24:33;;;;;;;48.47;25.93;;;1.10;99.90;;;;;;5192688;28;20265;-48
2023/12/08 08:27:04;;;;;;;49.30;26.03;;;1.10;99.90;;;;;;5193701;28;20216;-51
2023/12/08 08:29:35;;;;;;;57.27;26.93;;;1.10;99.90;;;;;;5190432;28;20194;-49
2023/12/08 08:32:06;;;;;;;49.03;24.90;;;1.10;99.90;;;;;;5201535;28;20475;-52
2023/12/08 08:34:36;;;;;;;52.80;25.13;;;1.10;99.90;;;;;;5202767;28;20199;-50
2023/12/08 08:37:07;;;;;;;52.93;26.03;;;1.00;99.90;;;;;;5186058;28;20227;-50
2023/12/08 08:39:38;;;;;;;48.73;25.17;;;1.00;99.90;;;;;;5189058;28;20187;-52
2023/12/08 08:42:09;;;;;;;53.53;26.57;;;1.00;99.90;;;;;;5203441;28;20273;-50
2023/12/08 08:44:40;;;;;;;49.53;25.20;;;1.10;99.90;;;;;;5188762;28;20207;-52
2023/12/08 08:47:12;;;;;;;50.43;25.77;;;1.10;99.90;;;;;;5185819;28;20442;-50
2023/12/08 08:49:43;;;;;;;50.07;24.80;;;1.10;99.90;;;;;;5169394;28;20495;-49
2023/12/08 08:52:14;;;;;;;49.37;25.63;;;1.10;99.90;;;;;;5185747;28;20466;-50
2023/12/08 08:54:46;;;;;;;50.30;23.70;;;1.10;99.90;;;;;;5187213;28;20454;-50
2023/12/08 08:57:17;;;;;;;54.00;24.20;;;1.10;99.90;;;;;;5206832;28;20170;-48
2023/12/08 08:59:48;;;;;;;40.87;22.20;;;1.10;99.90;;;;;;5185560;28;20466;-50
2023/12/08 09:02:18;;;;;;;43.33;22.53;;;1.20;99.90;;;;;;5188808;28;20445;-50
2023/12/08 09:04:49;;;;;;;54.30;25.17;;;1.20;99.90;;;;;;5194939;28;20293;-49
2023/12/08 09:07:20;;;;;;;47.97;22.87;;;1.10;99.90;;;;;;5191542;28;20237;-49
2023/12/08 09:09:50;;;;;;;48.53;24.63;;;1.20;99.90;;;;;;5199460;28;20182;-49
2023/12/08 09:12:21;;;;;;;43.40;23.57;;;1.20;99.90;;;;;;5186983;28;20464;-52
2023/12/08 09:14:52;;;;;;;43.63;22.70;;;1.20;99.90;;;;;;5203259;28;20201;-50
2023/12/08 09:17:22;;;;;;;42.30;22.57;;;1.20;99.90;;;;;;5192054;28;20185;-50
2023/12/08 09:19:53;;;;;;;48.33;22.30;;;1.20;99.90;;;;;;5196786;28;20655;-49
2023/12/08 09:22:24;;;;;;;44.73;22.67;;;1.30;99.90;;;;;;5188349;28;20189;-49
2023/12/08 09:24:54;;;;;;;42.43;23.57;;;1.30;99.90;;;;;;5187675;28;20693;-49
2023/12/08 09:27:25;;;;;;;37.07;21.93;;;1.30;99.90;;;;;;5206530;28;20194;-48
2023/12/08 09:29:55;;;;;;;44.83;22.53;;;1.20;99.90;;;;;;5198918;28;20180;-49
2023/12/08 09:32:27;;;;;;;39.60;20.90;;;1.30;99.90;;;;;;5189243;28;20542;-49
2023/12/08 09:34:58;;;;;;;45.37;21.40;;;1.30;99.90;;;;;;5197801;28;20262;-50
2023/12/08 09:37:28;;;;;;;42.03;21.27;;;1.40;99.90;;;;;;5203741;28;20934;-50
2023/12/08 09:39:59;;;;;;;41.40;21.70;;;1.40;99.90;;;;;;5189119;28;20270;-51
2023/12/08 09:42:42;;;;;;;41.10;21.23;;;1.40;99.90;;;;;;5205836;28;20261;-51
2023/12/08 09:45:13;;;;;;;39.80;20.80;;;1.40;99.90;;;;;;5205807;28;20186;-48
2023/12/08 09:47:47;;;;;;;41.93;20.43;;;1.50;99.90;;;;;;5188937;28;20446;-50
2023/12/08 09:50:18;;;;;;;35.57;19.10;;;1.50;99.90;;;;;;5203462;28;20537;-49
2023/12/08 09:52:48;;;;;;;44.07;21.07;;;1.50;99.90;;;;;;5200352;28;20898;-49
2023/12/08 09:55:20;;;;;;;45.83;20.33;;;1.40;99.90;;;;;;5205247;28;20263;-50
2023/12/08 09:57:53;;;;;;;39.10;20.40;;;1.40;99.90;;;;;;5186594;28;20428;-49
2023/12/08 10:00:24;;;;;;;33.07;19.80;;;1.40;99.90;;;;;;5205013;28;20424;-49
2023/12/08 10:02:54;;;;;;;40.23;20.90;;;1.40;99.90;;;;;;5188933;28;20960;-49
2023/12/08 10:05:25;;;;;;;43.00;19.53;;;1.40;99.90;;;;;;5203232;28;20438;-49
2023/12/08 10:07:58;;;;;;;41.13;20.10;;;1.40;99.90;;;;;;5196946;28;20180;-49
2023/12/08 10:10:30;;;;;;;34.67;19.50;;;1.40;99.90;;;;;;5200656;28;20200;-49
2023/12/08 10:13:01;;;;;;;40.60;20.93;;;1.40;99.90;;;;;;5187220;28;20456;-50
2023/12/08 10:15:32;;;;;;;35.70;20.77;;;1.40;99.90;;;;;;5204222;28;20416;-49
2023/12/08 10:18:03;;;;;;;43.13;22.40;;;1.40;99.90;;;;;;5204463;28;20445;-49
2023/12/08 10:20:33;;;;;;;37.17;20.67;;;1.40;99.90;;;;;;5203754;28;20542;-50
2023/12/08 10:23:04;;;;;;;31.27;18.47;;;1.40;99.90;;;;;;5205664;28;20198;-51
2023/12/08 10:25:36;;;;;;;47.23;20.67;;;1.30;99.90;;;;;;5187899;28;20246;-49
2023/12/08 10:28:07;;;;;;;38.63;19.30;;;1.30;99.90;;;;;;5203509;28;20206;-49
2023/12/08 10:30:44;;;;;;;41.23;21.77;;;1.20;99.90;;;;;;5190357;28;20489;-49
2023/12/08 10:33:21;;;;;;;40.73;21.10;;;1.20;99.90;;;;;;5187871;28;20456;-51
2023/12/08 10:35:52;;;;;;;38.80;19.20;;;1.20;99.90;;;;;;5190850;28;20529;-51
2023/12/08 10:38:23;;;;;;;33.67;19.57;;;1.10;99.90;;;;;;5204135;28;20848;-50
2023/12/08 10:40:53;;;;;;;39.63;20.50;;;1.30;99.90;;;;;;5204972;28;20194;-51
2023/12/08 10:43:25;;;;;;;34.13;19.70;;;1.20;99.90;;;;;;5204439;28;20449;-49
2023/12/08 10:45:56;;;;;;;35.83;20.93;;;1.20;99.90;;;;;;5201797;28;20193;-51
2023/12/08 10:48:26;;;;;;;39.50;19.83;;;1.20;99.90;;;;;;5205163;28;20900;-51
2023/12/08 10:50:58;;;;;;;36.47;19.83;;;1.30;99.90;;;;;;5188345;28;20228;-49
2023/12/08 10:53:29;;;;;;;35.90;18.77;;;1.20;99.90;;;;;;5188083;28;20196;-50
2023/12/08 10:56:11;;;;;;;34.10;18.50;;;1.20;99.90;;;;;;5202529;28;20501;-52
2023/12/08 10:58:44;;;;;;;36.37;19.90;;;1.20;99.90;;;;;;5204058;28;20233;-50
2023/12/08 11:01:16;;;;;;;34.23;19.00;;;1.20;99.90;;;;;;5202510;28;20471;-51
2023/12/08 11:03:51;;;;;;;30.90;17.70;;;1.20;99.90;;;;;;5187655;28;20526;-52
2023/12/08 11:06:24;;;;;;;38.53;18.87;;;1.30;99.90;;;;;;5190525;28;20435;-50
2023/12/08 11:09:00;;;;;;;31.83;18.03;;;1.20;99.90;;;;;;5205226;28;20436;-51
2023/12/08 11:11:32;;;;;;;36.43;19.57;;;1.20;99.90;;;;;;5200714;28;20970;-49
2023/12/08 11:14:13;;;;;;;31.70;17.30;;;1.20;99.90;;;;;;5187275;28;20542;-50
2023/12/08 11:16:51;;;;;;;28.60;16.60;;;1.30;99.90;;;;;;5188373;28;20495;-51
2023/12/08 11:19:22;;;;;;;31.90;17.60;;;1.30;99.90;;;;;;5201807;28;20438;-49
2023/12/08 11:21:53;;;;;;;36.13;18.70;;;1.40;99.90;;;;;;5190792;28;20431;-51
2023/12/08 11:24:24;;;;;;;28.83;18.30;;;1.40;99.90;;;;;;5203622;28;20474;-50
2023/12/08 11:27:23;;;;;;;29.27;17.57;;;1.40;99.90;;;;;;5191427;28;20194;-50
2023/12/08 11:30:09;;;;;;;34.40;17.87;;;1.40;99.90;;;;;;5190903;28;20503;-50
2023/12/08 11:33:25;;;;;;;38.20;18.07;;;1.40;99.90;;;;;;5205643;28;20473;-51
2023/12/08 11:36:07;;;;;;;33.93;18.40;;;1.30;99.90;;;;;;5187819;28;20461;-49
2023/12/08 11:38:38;;;;;;;32.00;17.50;;;1.30;99.90;;;;;;5219976;28;20442;-50
2023/12/08 11:41:12;;;;;;;35.60;18.30;;;1.40;99.90;;;;;;5204978;28;20455;-49
2023/12/08 11:43:44;;;;;;;41.70;19.47;;;1.30;99.90;;;;;;5203868;28;20993;-50
2023/12/08 11:46:15;;;;;;;31.53;16.20;;;1.40;99.90;;;;;;5205724;28;20438;-51
2023/12/08 11:48:48;;;;;;;28.00;15.93;;;1.40;99.90;;;;;;5206057;28;20521;-51
2023/12/08 11:51:19;;;;;;;30.73;17.13;;;1.40;99.90;;;;;;5189966;28;20600;-50
2023/12/08 11:53:55;;;;;;;28.70;16.57;;;1.40;99.90;;;;;;5204417;28;20463;-52
2023/12/08 11:56:41;;;;;;;28.93;17.73;;;1.40;99.90;;;;;;5189095;28;20267;-51
2023/12/08 11:59:22;;;;;;;34.03;18.47;;;1.40;99.90;;;;;;5188863;28;20492;-50
2023/12/08 12:01:52;;;;;;;31.43;15.80;;;1.40;99.90;;;;;;5204538;28;20513;-50
2023/12/08 12:04:23;;;;;;;33.73;17.20;;;1.50;99.90;;;;;;5187379;28;21137;-51
2023/12/08 12:06:54;;;;;;;25.20;15.80;;;1.50;99.90;;;;;;5189931;28;20210;-51
2023/12/08 12:09:25;;;;;;;30.60;16.23;;;1.40;99.90;;;;;;5201171;28;20205;-51
2023/12/08 12:11:58;;;;;;;27.03;16.20;;;1.40;99.90;;;;;;5193990;28;20264;-54
2023/12/08 12:14:31;;;;;;;32.13;17.17;;;1.50;99.90;;;;;;5193880;28;20198;-50
2023/12/08 12:17:03;;;;;;;34.33;16.97;;;1.50;99.90;;;;;;5189589;28;20426;-52
2023/12/08 12:19:33;;;;;;;29.57;15.60;;;1.50;99.90;;;;;;5192958;28;20442;-51
2023/12/08 12:22:05;;;;;;;28.77;16.90;;;1.40;99.90;;;;;;5189294;28;20455;-51
2023/12/08 12:24:35;;;;;;;30.13;17.37;;;1.50;99.90;;;;;;5190882;28;20258;-50
2023/12/08 12:27:06;;;;;;;36.90;18.00;;;1.50;99.90;;;;;;5187714;28;20752;-50
2023/12/08 12:29:37;;;;;;;34.83;16.73;;;1.50;99.90;;;;;;5188666;28;20656;-52
2023/12/08 12:32:08;;;;;;;26.90;15.73;;;1.50;99.90;;;;;;5187222;28;20212;-50
2023/12/08 12:34:39;;;;;;;28.47;15.10;;;1.50;99.90;;;;;;5185424;28;20203;-51
2023/12/08 12:37:11;;;;;;;32.40;18.50;;;1.50;99.90;;;;;;5189585;28;20528;-51
2023/12/08 12:39:41;;;;;;;31.07;17.53;;;1.50;99.90;;;;;;5218441;28;20426;-50
2023/12/08 12:42:12;;;;;;;30.77;15.57;;;1.50;99.90;;;;;;5229932;28;20790;-51
2023/12/08 12:44:47;;;;;;;37.13;17.57;;;1.50;99.90;;;;;;5187030;28;20199;-51
2023/12/08 12:47:22;;;;;;;28.07;17.27;;;1.50;99.90;;;;;;5185961;28;21595;-50
2023/12/08 12:50:10;;;;;;;36.70;18.43;;;1.50;99.90;;;;;;5186884;28;20527;-50
2023/12/08 12:52:40;;;;;;;37.47;17.33;;;1.60;99.90;;;;;;5203090;28;20478;-51
2023/12/08 12:55:24;;;;;;;29.07;16.47;;;1.50;99.90;;;;;;5189959;28;20922;-50